This is the latest recevied weather packets stored in our database for station/object JF7BTK-10. If no packets are shown the sender has not sent any weather packets the latest 10 day(s).
| Time | Temp. | Humidity | Pressure | Rain* | Wind** | Luminosity | Snow |
|---|---|---|---|---|---|---|---|
| 1777440753 | 13.89° C | 53% | 1009.2 hPa | 0 mm | - | - | - |
| 1777440531 | 13.33° C | 54% | 1008.8 hPa | 0 mm | - | - | - |
| 1777439631 | 13.33° C | 53% | 1008.9 hPa | 0 mm | - | - | - |
| 1777438731 | 13.89° C | 52% | 1008.9 hPa | 0 mm | - | - | - |
| 1777437831 | 12.78° C | 53% | 1008.9 hPa | 0 mm | - | - | - |
| 1777437753 | 12.78° C | 53% | 1008.9 hPa | 0 mm | - | - | - |
| 1777436931 | 13.33° C | 53% | 1009.1 hPa | 0 mm | - | - | - |
| 1777436031 | 13.33° C | 52% | 1008.8 hPa | 0 mm | - | - | - |
| 1777435131 | 12.78° C | 53% | 1009.2 hPa | 0 mm | - | - | - |
| 1777434232 | 13.33° C | 52% | 1009.4 hPa | 0 mm | - | - | - |
| 1777433331 | 12.78° C | 53% | 1009.2 hPa | 0 mm | - | - | - |
| 1777429732 | 12.22° C | 60% | 1009.3 hPa | 0 mm | - | - | - |
| 1777427931 | 11.67° C | 60% | 1009 hPa | 0 mm | - | - | - |
| 1777423433 | 11.67° C | 61% | 1008.7 hPa | 0 mm | - | - | - |
| 1777422531 | 11.67° C | 62% | 1008.5 hPa | 0 mm | - | - | - |
| 1777404532 | 6.11° C | 96% | 1006.8 hPa | 0 mm | - | - | - |
| 1777402732 | 6.11° C | 96% | 1006.6 hPa | 0 mm | - | - | - |
| 1777395534 | 5.56° C | 95% | 1007 hPa | 0 mm | - | - | - |
| 1777393734 | 5.56° C | 94% | 1006.8 hPa | 0 mm | - | - | - |
| 1777389233 | 6.11° C | 93% | 1007.1 hPa | 0 mm | - | - | - |
| 1777387431 | 6.67° C | 93% | 1007.1 hPa | 0 mm | - | - | - |
| 1777385631 | 6.11° C | 92% | 1006.9 hPa | 0 mm | - | - | - |
| 1777384731 | 6.11° C | 92% | 1006.8 hPa | 0 mm | - | - | - |
| 1777382931 | 6.67° C | 91% | 1006.8 hPa | 0 mm | - | - | - |
| 1777379331 | 7.22° C | 90% | 1007.2 hPa | 0 mm | - | - | - |
* Rain latest hour (hover to see other rain measurements)
** Current wind speed in m/s (hover to see current wind gust speed)